Time;durP1;ratioP1;P1;durP2;ratioP2;P2;SDS_P1;SDS_P2;PMS_P1;PMS_P2;Temp;Humidity;BMP_temperature;BMP_pressure;BME280_temperature;BME280_humidity;BME280_pressure;Samples;Min_cycle;Max_cycle;Signal;HPM_P1;HPM_P2
2022/03/02 00:02:19;;;;;;;33.57;18.70;;;;;;;2.99;100.00;102323.78;7392103;19;20415;-48
2022/03/02 00:04:48;;;;;;;37.00;19.90;;;;;;;2.74;100.00;102331.59;7394327;19;20470;-47
2022/03/02 00:07:18;;;;;;;33.50;18.73;;;;;;;2.23;100.00;102337.63;7393195;19;20835;-47
2022/03/02 00:09:47;;;;;;;43.17;19.50;;;;;;;1.94;100.00;102338.09;7395212;19;20398;-47
2022/03/02 00:12:17;;;;;;;38.50;19.20;;;;;;;1.75;100.00;102338.75;7392687;19;20419;-46
2022/03/02 00:14:49;;;;;;;37.30;19.17;;;;;;;1.86;100.00;102336.44;7393888;19;20764;-48
2022/03/02 00:17:18;;;;;;;41.47;19.17;;;;;;;1.81;100.00;102342.69;7392024;19;20415;-47
2022/03/02 00:19:48;;;;;;;44.50;19.80;;;;;;;1.64;100.00;102343.50;7394677;19;20388;-48
2022/03/02 00:22:18;;;;;;;44.00;19.80;;;;;;;1.66;100.00;102337.84;7391734;19;20414;-46
2022/03/02 00:24:51;;;;;;;37.30;18.30;;;;;;;1.69;100.00;102338.13;7395511;19;20417;-46
2022/03/02 00:27:23;;;;;;;37.23;18.60;;;;;;;1.52;100.00;102346.56;7370880;19;20809;-48
2022/03/02 00:29:55;;;;;;;38.90;19.20;;;;;;;1.58;100.00;102346.28;7393757;19;20375;-46
2022/03/02 00:32:25;;;;;;;36.00;19.40;;;;;;;1.54;100.00;102346.75;7390908;19;20414;-47
2022/03/02 00:34:54;;;;;;;38.73;20.40;;;;;;;1.61;100.00;102345.00;7392742;19;20419;-47
2022/03/02 00:37:24;;;;;;;39.40;18.57;;;;;;;1.50;100.00;102344.59;7390906;19;20498;-48
2022/03/02 00:39:53;;;;;;;40.13;19.37;;;;;;;1.45;100.00;102342.47;7393803;19;20382;-52
2022/03/02 00:42:23;;;;;;;39.10;19.83;;;;;;;1.45;100.00;102334.84;7390115;19;20499;-45
2022/03/02 00:44:55;;;;;;;36.70;18.70;;;;;;;1.42;100.00;102331.06;7393134;19;20425;-50
2022/03/02 00:47:25;;;;;;;41.53;19.90;;;;;;;1.43;100.00;102331.25;7390833;19;20407;-46
2022/03/02 00:49:55;;;;;;;35.33;18.13;;;;;;;1.39;100.00;102329.13;7393588;19;20389;-46
2022/03/02 00:52:25;;;;;;;37.40;19.33;;;;;;;1.57;100.00;102319.97;7390581;19;20395;-46
2022/03/02 00:54:55;;;;;;;123.57;54.03;;;;;;;3.10;100.00;102318.09;7393039;19;20462;-49
2022/03/02 00:57:24;;;;;;;53.20;27.23;;;;;;;3.37;100.00;102326.59;7390740;19;20407;-48
2022/03/02 00:59:57;;;;;;;45.30;23.33;;;;;;;3.38;100.00;102341.16;7393296;19;20761;-47
2022/03/02 01:02:26;;;;;;;43.33;22.50;;;;;;;3.29;100.00;102345.38;7389177;19;20490;-46
2022/03/02 01:04:56;;;;;;;36.40;20.00;;;;;;;3.14;100.00;102346.44;7392419;19;20948;-47
2022/03/02 01:07:25;;;;;;;34.97;19.70;;;;;;;2.39;100.00;102349.34;7387463;19;20497;-46
2022/03/02 01:09:55;;;;;;;41.20;20.93;;;;;;;2.21;100.00;102331.44;7393679;19;20395;-48
2022/03/02 01:12:25;;;;;;;36.00;20.83;;;;;;;1.98;100.00;102331.69;7390236;19;20925;-48
2022/03/02 01:14:57;;;;;;;35.73;19.60;;;;;;;1.91;100.00;102325.06;7391998;19;20768;-46
2022/03/02 01:17:26;;;;;;;41.30;20.40;;;;;;;1.74;100.00;102323.31;7387584;19;20395;-46
2022/03/02 01:19:56;;;;;;;41.00;20.90;;;;;;;1.80;100.00;102320.53;7392812;19;20470;-46
2022/03/02 01:22:25;;;;;;;42.87;20.00;;;;;;;1.73;100.00;102318.97;7388537;19;20415;-48
2022/03/02 01:24:56;;;;;;;37.73;20.23;;;;;;;1.54;100.00;102316.22;7391692;19;20398;-46
2022/03/02 01:27:26;;;;;;;41.50;19.27;;;;;;;1.69;100.00;102312.69;7390068;19;20976;-48
2022/03/02 01:29:58;;;;;;;41.43;18.77;;;;;;;1.79;100.00;102306.00;7392632;19;20435;-50
2022/03/02 01:32:27;;;;;;;38.30;20.17;;;;;;;1.81;100.00;102302.88;7388849;19;20394;-46
2022/03/02 01:34:57;;;;;;;43.20;20.43;;;;;;;1.81;100.00;102301.97;7391098;19;20422;-47
2022/03/02 01:37:26;;;;;;;40.00;18.90;;;;;;;1.72;100.00;102297.75;7391180;19;20398;-47
2022/03/02 01:39:56;;;;;;;43.50;20.57;;;;;;;1.71;100.00;102301.03;7391855;19;20389;-48
2022/03/02 01:42:25;;;;;;;45.70;19.70;;;;;;;1.67;100.00;102288.72;7386045;19;20945;-47
2022/03/02 01:44:57;;;;;;;41.37;20.57;;;;;;;1.67;100.00;102272.53;7391270;19;20411;-46
2022/03/02 01:47:30;;;;;;;40.47;19.37;;;;;;;1.81;100.00;102276.50;7390926;19;20398;-47
2022/03/02 01:50:00;;;;;;;34.50;18.20;;;;;;;1.64;100.00;102274.78;7394953;19;20403;-46
2022/03/02 01:52:30;;;;;;;41.33;20.83;;;;;;;1.62;100.00;102269.53;7388802;19;20469;-48
2022/03/02 01:55:00;;;;;;;41.87;21.23;;;;;;;1.67;100.00;102262.38;7390702;19;20411;-47
2022/03/02 01:57:30;;;;;;;38.87;19.93;;;;;;;1.89;100.00;102257.81;7393456;19;20409;-47
2022/03/02 02:00:02;;;;;;;35.97;19.20;;;;;;;1.81;100.00;102253.59;7399281;19;20476;-46
2022/03/02 02:02:31;;;;;;;39.87;19.60;;;;;;;1.85;100.00;102251.50;7389204;19;20397;-48
2022/03/02 02:05:01;;;;;;;39.37;19.40;;;;;;;1.61;100.00;102260.13;7397420;19;20941;-46
2022/03/02 02:07:30;;;;;;;37.57;19.23;;;;;;;1.57;100.00;102256.34;7393526;19;20954;-52
2022/03/02 02:10:00;;;;;;;37.67;19.40;;;;;;;1.61;100.00;102258.47;7398775;19;20899;-48
2022/03/02 02:12:30;;;;;;;38.27;20.23;;;;;;;1.78;100.00;102251.63;7397353;19;20417;-47
2022/03/02 02:15:02;;;;;;;36.83;19.47;;;;;;;1.74;100.00;102245.34;7397159;19;20744;-48
2022/03/02 02:17:31;;;;;;;40.13;20.50;;;;;;;1.62;100.00;102246.63;7395762;19;20418;-47
2022/03/02 02:20:01;;;;;;;38.93;20.13;;;;;;;1.59;100.00;102239.59;7398635;19;20723;-48
2022/03/02 02:22:33;;;;;;;38.67;20.37;;;;;;;1.69;100.00;102251.59;7395875;19;20416;-45
2022/03/02 02:25:02;;;;;;;40.50;20.27;;;;;;;1.53;100.00;102240.63;7396860;19;20404;-45
2022/03/02 02:27:32;;;;;;;43.97;21.07;;;;;;;1.62;100.00;102249.19;7397064;19;20398;-50
2022/03/02 02:30:03;;;;;;;43.50;21.37;;;;;;;1.60;100.00;102255.78;7398457;19;20394;-45
2022/03/02 02:32:32;;;;;;;39.83;20.37;;;;;;;1.63;100.00;102250.97;7394883;19;20418;-46
2022/03/02 02:35:02;;;;;;;43.10;20.60;;;;;;;1.56;100.00;102246.94;7396497;19;20414;-48
2022/03/02 02:37:36;;;;;;;41.53;20.60;;;;;;;1.53;100.00;102241.50;7395588;19;20433;-47
2022/03/02 02:40:08;;;;;;;39.47;20.50;;;;;;;1.46;100.00;102247.63;7398204;19;20373;-47
2022/03/02 02:42:39;;;;;;;56.50;19.23;;;;;;;1.57;100.00;102240.16;7395141;19;20424;-47
2022/03/02 02:45:09;;;;;;;44.07;19.40;;;;;;;1.66;100.00;102236.03;7396200;19;20414;-49
2022/03/02 02:47:39;;;;;;;38.53;20.10;;;;;;;2.24;100.00;102219.72;7394934;19;20478;-47
2022/03/02 02:50:20;;;;;;;41.30;19.87;;;;;;;1.95;100.00;102222.78;7397665;19;20388;-47
2022/03/02 02:52:53;;;;;;;35.90;20.23;;;;;;;1.85;100.00;102222.63;7394734;19;20935;-51
2022/03/02 02:55:24;;;;;;;38.07;20.27;;;;;;;1.65;100.00;102224.06;7395641;19;20427;-47
2022/03/02 02:57:54;;;;;;;40.97;21.10;;;;;;;1.63;100.00;102223.00;7393402;19;20493;-48
2022/03/02 03:00:26;;;;;;;38.83;20.33;;;;;;;1.51;100.00;102220.09;7396633;19;20397;-49
2022/03/02 03:02:56;;;;;;;37.37;19.60;;;;;;;1.46;100.00;102222.19;7394025;19;20423;-46
2022/03/02 03:05:28;;;;;;;41.43;21.23;;;;;;;1.65;100.00;102223.16;7395503;19;20415;-49
2022/03/02 03:08:02;;;;;;;38.20;20.80;;;;;;;1.48;100.00;102209.59;7391557;19;21038;-49
2022/03/02 03:10:32;;;;;;;42.30;21.00;;;;;;;1.31;100.00;102212.97;7397579;19;20391;-48
2022/03/02 03:13:02;;;;;;;36.40;19.53;;;;;;;1.26;100.00;102193.78;7393327;19;20436;-48
2022/03/02 03:15:32;;;;;;;40.00;19.73;;;;;;;1.13;100.00;102200.16;7394843;19;20934;-46
2022/03/02 03:18:01;;;;;;;41.67;19.03;;;;;;;1.04;100.00;102194.13;7393356;19;20412;-46
2022/03/02 03:20:31;;;;;;;38.60;20.27;;;;;;;0.95;100.00;102194.09;7397128;19;20390;-48
2022/03/02 03:23:03;;;;;;;40.97;20.60;;;;;;;1.13;100.00;102186.56;7393914;19;20760;-46
2022/03/02 03:25:33;;;;;;;38.72;20.15;;;;;;;1.07;100.00;102190.28;7394563;19;20409;-46
2022/03/02 03:28:02;;;;;;;38.60;20.50;;;;;;;0.99;100.00;102187.69;7390632;19;20531;-48
2022/03/02 03:30:32;;;;;;;35.20;18.90;;;;;;;0.79;100.00;102197.59;7396137;19;20388;-46
2022/03/02 03:33:04;;;;;;;38.85;19.40;;;;;;;0.67;100.00;102192.09;7393407;19;20403;-45
2022/03/02 03:35:34;;;;;;;36.08;18.58;;;;;;;0.84;100.00;102187.91;7394406;19;20170;-50
2022/03/02 03:38:06;;;;;;;35.13;18.13;;;;;;;1.04;100.00;102183.97;7394609;19;20946;-48
2022/03/02 03:40:36;;;;;;;38.90;18.92;;;;;;;1.37;100.00;102184.75;7396491;19;20455;-47
2022/03/02 03:43:06;;;;;;;34.42;17.38;;;;;;;1.11;100.00;102195.66;7392747;19;20197;-47
2022/03/02 03:45:36;;;;;;;42.78;19.60;;;;;;;0.88;100.00;102192.53;7394250;19;20165;-47
2022/03/02 03:48:06;;;;;;;35.77;18.50;;;;;;;0.89;100.00;102184.19;7391668;19;20650;-47
2022/03/02 03:50:35;;;;;;;40.25;18.52;;;;;;;0.88;100.00;102191.66;7395882;19;20364;-51
2022/03/02 03:53:08;;;;;;;38.67;17.92;;;;;;;0.75;100.00;102190.38;7392630;19;20188;-49
2022/03/02 03:55:38;;;;;;;40.70;19.50;;;;;;;0.60;100.00;102189.66;7393852;19;20162;-47
2022/03/02 03:58:08;;;;;;;33.73;19.13;;;;;;;0.45;100.00;102188.06;7391803;19;20253;-46
2022/03/02 04:00:38;;;;;;;39.42;18.73;;;;;;;0.47;100.00;102186.56;7395630;19;20375;-47
2022/03/02 04:03:07;;;;;;;36.70;19.23;;;;;;;0.60;100.00;102176.97;7392061;19;20652;-46
2022/03/02 04:05:37;;;;;;;36.40;19.10;;;;;;;0.62;100.00;102177.13;7393567;19;20176;-46
2022/03/02 04:08:09;;;;;;;43.20;20.48;;;;;;;0.66;100.00;102175.06;7391605;19;20538;-46
2022/03/02 04:10:39;;;;;;;43.07;20.37;;;;;;;0.56;100.00;102169.75;7395439;19;20143;-47
2022/03/02 04:13:08;;;;;;;39.65;20.23;;;;;;;0.80;100.00;102162.91;7394420;19;20784;-47
2022/03/02 04:15:38;;;;;;;44.50;22.20;;;;;;;0.98;100.00;102170.63;7395880;19;20173;-47
2022/03/02 04:18:08;;;;;;;38.77;19.43;;;;;;;1.21;100.00;102163.72;7390997;19;20419;-47
2022/03/02 04:20:37;;;;;;;39.20;21.42;;;;;;;1.13;100.00;102167.09;7394430;19;20378;-45
2022/03/02 04:23:11;;;;;;;41.28;20.65;;;;;;;0.70;100.00;102161.03;7391547;19;20194;-48
2022/03/02 04:25:41;;;;;;;44.58;20.35;;;;;;;0.37;100.00;102172.88;7395174;19;20139;-50
2022/03/02 04:28:11;;;;;;;42.60;19.63;;;;;;;0.30;100.00;102162.81;7389517;19;20186;-46
2022/03/02 04:30:40;;;;;;;44.97;20.45;;;;;;;0.24;100.00;102162.19;7395141;19;20129;-48
2022/03/02 04:33:10;;;;;;;38.50;19.63;;;;;;;0.34;100.00;102158.97;7391197;19;20194;-46
2022/03/02 04:35:39;;;;;;;38.30;19.70;;;;;;;0.27;100.00;102157.44;7397318;19;20173;-45
2022/03/02 04:38:12;;;;;;;43.53;19.42;;;;;;;0.18;100.00;102159.91;7389318;19;20193;-47
2022/03/02 04:40:41;;;;;;;41.65;18.95;;;;;;;0.19;100.00;102148.09;7394533;19;20133;-46
2022/03/02 04:43:11;;;;;;;40.95;19.83;;;;;;;0.34;100.00;102144.66;7387931;19;20193;-45
2022/03/02 04:45:41;;;;;;;45.45;22.52;;;;;;;0.24;100.00;102146.94;7394207;19;20127;-47
2022/03/02 04:48:10;;;;;;;40.60;20.05;;;;;;;0.09;100.00;102144.59;7390343;19;20197;-47
2022/03/02 04:50:40;;;;;;;44.28;21.52;;;;;;;0.13;100.00;102144.19;7394068;19;20141;-47
2022/03/02 04:53:14;;;;;;;41.95;19.35;;;;;;;0.33;100.00;102137.78;7390539;19;20201;-50
2022/03/02 04:55:44;;;;;;;37.72;20.70;;;;;;;0.31;100.00;102144.31;7394121;19;20490;-47
2022/03/02 04:58:14;;;;;;;44.20;20.73;;;;;;;0.34;100.00;102138.66;7388014;19;20182;-49
2022/03/02 05:00:44;;;;;;;37.92;19.77;;;;;;;0.30;100.00;102142.50;7394251;19;20130;-47
2022/03/02 05:03:14;;;;;;;41.83;19.97;;;;;;;0.20;100.00;102134.69;7389943;19;20228;-47
2022/03/02 05:05:44;;;;;;;42.50;20.83;;;;;;;0.36;100.00;102127.94;7394599;19;20388;-48
2022/03/02 05:08:16;;;;;;;41.22;21.42;;;;;;;0.37;100.00;102132.25;7388286;19;20197;-46
2022/03/02 05:10:45;;;;;;;44.72;21.48;;;;;;;0.30;100.00;102132.34;7393611;19;20481;-47
2022/03/02 05:13:15;;;;;;;48.88;21.95;;;;;;;0.20;100.00;102130.50;7390234;19;20532;-50
2022/03/02 05:15:44;;;;;;;47.97;23.10;;;;;;;0.17;100.00;102124.19;7393300;19;20127;-47
2022/03/02 05:18:14;;;;;;;53.35;26.08;;;;;;;0.22;100.00;102107.81;7391109;19;20196;-47
2022/03/02 05:20:44;;;;;;;59.47;27.92;;;;;;;0.29;100.00;102114.44;7393284;19;20145;-48
2022/03/02 05:23:16;;;;;;;72.18;27.55;;;;;;;0.30;100.00;102101.88;7390867;19;20194;-46
2022/03/02 05:25:45;;;;;;;52.38;26.50;;;;;;;0.25;100.00;102097.97;7393402;19;20133;-51
2022/03/02 05:28:15;;;;;;;49.65;22.25;;;;;;;0.46;100.00;102095.88;7389366;19;20525;-45
2022/03/02 05:30:44;;;;;;;51.97;24.02;;;;;;;0.50;100.00;102092.91;7392094;19;20141;-46
2022/03/02 05:33:14;;;;;;;56.33;24.55;;;;;;;0.65;100.00;102096.13;7389916;19;20194;-47
2022/03/02 05:35:44;;;;;;;49.08;24.65;;;;;;;0.62;100.00;102106.88;7392934;19;20127;-48
2022/03/02 05:38:16;;;;;;;43.35;22.00;;;;;;;0.48;100.00;102105.47;7386026;19;20190;-48
2022/03/02 05:40:45;;;;;;;38.95;19.45;;;;;;;0.18;100.00;102113.28;7396300;19;20131;-49
2022/03/02 05:43:15;;;;;;;47.67;22.73;;;;;;;-0.12;100.00;102111.88;7389298;19;20194;-45
2022/03/02 05:45:44;;;;;;;44.88;22.90;;;;;;;-0.26;100.00;102125.59;7392811;19;20473;-48
2022/03/02 05:48:14;;;;;;;46.60;22.25;;;;;;;-0.20;100.00;102123.72;7387611;19;20182;-46
2022/03/02 05:50:43;;;;;;;60.20;26.75;;;;;;;0.52;100.00;102117.72;7392722;19;20127;-45
2022/03/02 05:53:15;;;;;;;105.80;53.03;;;;;;;1.71;100.00;102121.97;7388538;19;20200;-48
2022/03/02 05:55:45;;;;;;;81.13;35.67;;;;;;;2.48;100.00;102131.16;7392426;19;20133;-49
2022/03/02 05:58:15;;;;;;;62.30;29.65;;;;;;;1.70;100.00;102140.53;7387190;19;20794;-46
2022/03/02 06:00:45;;;;;;;53.47;25.50;;;;;;;1.23;100.00;102137.56;7392104;19;20654;-47
2022/03/02 06:03:15;;;;;;;53.90;27.10;;;;;;;2.00;100.00;102139.25;7388253;19;20407;-46
2022/03/02 06:05:45;;;;;;;54.17;23.70;;;;;;;1.77;100.00;102142.94;7393015;19;20392;-50
2022/03/02 06:08:17;;;;;;;45.20;23.10;;;;;;;1.39;100.00;102140.00;7388269;19;20417;-50
2022/03/02 06:10:48;;;;;;;43.90;22.20;;;;;;;1.64;100.00;102138.25;7392012;19;20379;-48
2022/03/02 06:13:18;;;;;;;52.73;22.60;;;;;;;1.64;100.00;102145.91;7388316;19;20421;-46
2022/03/02 06:15:48;;;;;;;51.27;21.33;;;;;;;1.24;100.00;102144.44;7392727;19;20497;-49
2022/03/02 06:18:18;;;;;;;39.57;20.73;;;;;;;0.91;100.00;102152.19;7386545;19;20954;-45
2022/03/02 06:20:52;;;;;;;61.83;30.57;;;;;;;1.28;100.00;102154.19;7391579;19;20370;-46
2022/03/02 06:23:25;;;;;;;59.20;27.40;;;;;;;1.20;100.00;102158.47;7385924;19;20411;-46
2022/03/02 06:25:55;;;;;;;43.23;21.87;;;;;;;1.25;100.00;102170.03;7391784;19;20387;-46
2022/03/02 06:28:24;;;;;;;43.57;21.30;;;;;;;0.47;100.00;102158.63;7387913;19;20403;-47
2022/03/02 06:30:54;;;;;;;45.50;22.45;;;;;;;-0.03;100.00;102166.13;7391507;19;20442;-47
2022/03/02 06:33:24;;;;;;;42.77;22.57;;;;;;;-0.27;100.00;102162.75;7387421;19;20665;-46
2022/03/02 06:35:56;;;;;;;44.88;22.10;;;;;;;-0.37;100.00;102163.38;7395700;19;20729;-50
2022/03/02 06:38:28;;;;;;;41.60;22.58;;;;;;;-0.47;100.00;102153.88;7386381;19;20529;-49
2022/03/02 06:41:04;;;;;;;44.35;22.67;;;;;;;-0.51;100.00;102149.19;7391235;19;20143;-49
2022/03/02 06:43:37;;;;;;;40.58;21.40;;;;;;;-0.59;100.00;102155.06;7395459;19;20181;-47
2022/03/02 06:46:10;;;;;;;46.75;22.88;;;;;;;-0.58;100.00;102155.25;7396559;19;20139;-54
2022/03/02 06:48:45;;;;;;;49.53;24.60;;;;;;;-0.55;100.00;102154.69;7397171;19;20131;-52
2022/03/02 06:51:17;;;;;;;50.47;24.77;;;;;;;-0.55;100.00;102142.00;7394939;19;20133;-50
2022/03/02 06:53:49;;;;;;;57.88;28.95;;;;;;;0.90;100.00;102137.69;7397050;19;20250;-46
2022/03/02 06:56:21;;;;;;;55.30;26.38;;;;;;;1.27;100.00;102149.84;7395076;19;20134;-46
2022/03/02 06:58:53;;;;;;;57.80;28.50;;;;;;;1.46;100.00;102150.97;7395539;19;20133;-48
2022/03/02 07:01:27;;;;;;;78.63;30.03;;;;;;;1.96;100.00;102155.88;7394024;19;20137;-46
2022/03/02 07:03:59;;;;;;;64.27;31.77;;;;;;;2.02;100.00;102166.63;7396682;19;20783;-47
2022/03/02 07:06:30;;;;;;;73.50;36.70;;;;;;;1.92;100.00;102163.94;7391306;19;20407;-47
2022/03/02 07:09:03;;;;;;;56.67;26.80;;;;;;;1.99;100.00;102171.44;7396814;19;20388;-49
2022/03/02 07:11:36;;;;;;;53.50;26.33;;;;;;;1.92;100.00;102169.03;7394094;19;20422;-48
2022/03/02 07:14:05;;;;;;;47.93;24.70;;;;;;;1.32;100.00;102176.63;7400783;19;20428;-49
2022/03/02 07:16:35;;;;;;;54.73;27.23;;;;;;;0.94;100.00;102174.50;7391262;19;20395;-51
2022/03/02 07:19:05;;;;;;;66.53;30.50;;;;;;;0.80;100.00;102178.13;7394977;19;20386;-48
2022/03/02 07:21:34;;;;;;;54.67;26.53;;;;;;;0.79;100.00;102171.25;7396623;19;20415;-52
2022/03/02 07:24:09;;;;;;;68.17;30.23;;;;;;;0.76;100.00;102166.75;7398535;19;20419;-51
2022/03/02 07:26:38;;;;;;;62.67;27.30;;;;;;;0.89;100.00;102166.41;7393067;19;20414;-51
2022/03/02 07:29:10;;;;;;;59.37;30.00;;;;;;;1.15;100.00;102152.00;7394918;19;20387;-47
2022/03/02 07:31:41;;;;;;;59.78;29.02;;;;;;;1.19;100.00;102152.47;7393620;19;20402;-46
2022/03/02 07:34:17;;;;;;;70.10;31.48;;;;;;;1.13;100.00;102163.69;7395708;19;20179;-50
2022/03/02 07:36:46;;;;;;;49.92;26.08;;;;;;;1.05;100.00;102152.72;7394169;19;20570;-46
2022/03/02 07:39:19;;;;;;;62.13;29.93;;;;;;;1.16;100.00;102149.63;7396678;19;20216;-49
2022/03/02 07:41:49;;;;;;;53.40;24.03;;;;;;;1.13;100.00;102143.34;7392354;19;20398;-49
2022/03/02 07:44:18;;;;;;;55.23;27.47;;;;;;;1.40;100.00;102147.81;7399450;19;20406;-48
2022/03/02 07:46:48;;;;;;;52.13;26.77;;;;;;;1.51;100.00;102148.88;7392904;19;20490;-47
2022/03/02 07:49:20;;;;;;;53.43;27.67;;;;;;;1.53;100.00;102147.38;7396724;19;20379;-48
2022/03/02 07:51:54;;;;;;;53.40;26.77;;;;;;;1.73;100.00;102151.00;7392166;19;20422;-48
2022/03/02 07:54:31;;;;;;;50.43;26.00;;;;;;;1.67;100.00;102151.31;7393377;19;20428;-48
2022/03/02 07:57:01;;;;;;;51.63;24.80;;;;;;;1.65;100.00;102157.00;7392446;19;20418;-47
2022/03/02 07:59:34;;;;;;;52.10;25.50;;;;;;;1.62;100.00;102167.75;7393875;19;20377;-48
2022/03/02 08:02:05;;;;;;;54.90;24.93;;;;;;;1.47;100.00;102178.19;7392132;19;20945;-48
2022/03/02 08:04:36;;;;;;;50.00;24.83;;;;;;;1.48;100.00;102182.53;7394221;19;20960;-48
2022/03/02 08:07:06;;;;;;;76.10;34.93;;;;;;;1.66;100.00;102179.13;7392677;19;20764;-49
2022/03/02 08:09:38;;;;;;;65.10;26.17;;;;;;;1.88;100.00;102179.66;7395230;19;20388;-49
2022/03/02 08:12:09;;;;;;;61.47;29.97;;;;;;;1.96;100.00;102194.06;7391834;19;20401;-48
2022/03/02 08:14:40;;;;;;;51.43;23.97;;;;;;;1.85;100.00;102202.25;7394184;19;20429;-49
2022/03/02 08:17:09;;;;;;;50.73;25.63;;;;;;;1.84;100.00;102201.34;7388823;19;20473;-50
2022/03/02 08:19:42;;;;;;;42.80;23.03;;;;;;;1.82;100.00;102197.75;7392776;19;20452;-51
2022/03/02 08:22:14;;;;;;;50.90;24.50;;;;;;;1.89;100.00;102202.72;7391739;19;20423;-48
2022/03/02 08:24:49;;;;;;;40.07;21.13;;;;;;;1.93;100.00;102196.28;7397544;19;20426;-46
2022/03/02 08:27:19;;;;;;;44.37;23.43;;;;;;;1.96;100.00;102188.06;7391663;19;20415;-50
2022/03/02 08:29:54;;;;;;;43.90;22.60;;;;;;;1.96;100.00;102188.97;7397884;19;20379;-50
2022/03/02 08:32:24;;;;;;;47.20;23.43;;;;;;;2.08;100.00;102185.81;7391568;19;20473;-47
2022/03/02 08:34:54;;;;;;;49.93;22.83;;;;;;;2.09;100.00;102197.78;7393391;19;20417;-50
2022/03/02 08:37:25;;;;;;;45.27;21.67;;;;;;;2.00;100.00;102219.06;7391082;19;20397;-49
2022/03/02 08:39:57;;;;;;;64.93;28.17;;;;;;;1.97;100.00;102218.78;7392909;19;20690;-47
2022/03/02 08:42:27;;;;;;;40.60;20.40;;;;;;;2.04;100.00;102230.44;7391818;19;20761;-47
2022/03/02 08:44:57;;;;;;;46.17;21.33;;;;;;;2.17;100.00;102222.41;7393211;19;20417;-51
2022/03/02 08:47:27;;;;;;;40.93;20.20;;;;;;;2.16;100.00;102226.56;7390556;19;20750;-47
2022/03/02 08:49:56;;;;;;;39.33;19.97;;;;;;;2.26;100.00;102218.19;7391061;19;20395;-47
2022/03/02 08:52:28;;;;;;;45.33;20.37;;;;;;;2.42;100.00;102217.19;7387174;19;20407;-48
2022/03/02 08:55:04;;;;;;;45.13;21.40;;;;;;;2.57;100.00;102217.78;7389849;19;20404;-46
2022/03/02 08:57:34;;;;;;;41.37;20.23;;;;;;;2.75;100.00;102217.75;7385677;19;20469;-51
2022/03/02 09:00:09;;;;;;;41.83;19.90;;;;;;;2.72;100.00;102214.91;7388092;19;20467;-49
2022/03/02 09:02:40;;;;;;;42.80;21.17;;;;;;;2.84;100.00;102219.53;7384721;19;20414;-51
2022/03/02 09:05:11;;;;;;;42.37;21.60;;;;;;;2.88;100.00;102213.13;7387878;19;20412;-47
2022/03/02 09:07:41;;;;;;;35.60;20.53;;;;;;;2.91;100.00;102222.69;7384937;19;20454;-47
2022/03/02 09:10:13;;;;;;;45.10;21.93;;;;;;;2.93;100.00;102213.53;7390890;19;20388;-49
2022/03/02 09:12:43;;;;;;;46.57;22.93;;;;;;;2.99;100.00;102216.69;7387769;19;20434;-46
2022/03/02 09:15:12;;;;;;;41.63;20.97;;;;;;;3.00;100.00;102215.94;7389779;19;20422;-49
2022/03/02 09:17:42;;;;;;;39.67;21.27;;;;;;;2.96;100.00;102206.19;7388141;19;20409;-46
2022/03/02 09:20:12;;;;;;;63.60;29.47;;;;;;;3.13;100.00;102201.81;7389867;19;20384;-47
2022/03/02 09:22:43;;;;;;;93.60;38.80;;;;;;;3.29;100.00;102194.84;7386091;19;20438;-50
2022/03/02 09:25:15;;;;;;;50.07;23.90;;;;;;;3.42;100.00;102201.09;7393660;19;20412;-49
2022/03/02 09:27:46;;;;;;;96.43;40.70;;;;;;;3.49;100.00;102203.47;7388226;19;20421;-46
2022/03/02 09:30:16;;;;;;;51.50;23.83;;;;;;;3.63;100.00;102204.75;7391181;19;20383;-48
2022/03/02 09:32:45;;;;;;;58.50;28.83;;;;;;;3.73;100.00;102201.41;7386352;19;20426;-48
2022/03/02 09:35:16;;;;;;;82.43;37.63;;;;;;;3.91;100.00;102208.22;7389573;19;20437;-50
2022/03/02 09:37:49;;;;;;;42.10;21.57;;;;;;;4.03;100.00;102203.34;7388669;19;20426;-47
2022/03/02 09:40:29;;;;;;;50.17;23.30;;;;;;;4.23;100.00;102195.69;7390467;19;20399;-47
2022/03/02 09:43:01;;;;;;;35.03;18.53;;;;;;;4.30;100.00;102200.59;7388534;19;20458;-47
2022/03/02 09:45:32;;;;;;;46.40;18.77;;;;;;;4.32;100.00;102197.41;7390441;19;20435;-49
2022/03/02 09:48:03;;;;;;;35.27;17.17;;;;;;;4.36;100.00;102203.69;7382676;19;20403;-51
2022/03/02 09:50:34;;;;;;;34.73;18.27;;;;;;;4.50;100.00;102199.81;7391258;19;20918;-48
2022/03/02 09:53:08;;;;;;;36.90;19.30;;;;;;;4.58;100.00;102200.53;7386784;19;20415;-48
2022/03/02 09:55:41;;;;;;;43.10;24.10;;;;;;;4.69;100.00;102201.47;7390336;19;20753;-48
2022/03/02 09:58:15;;;;;;;45.33;24.90;;;;;;;4.76;100.00;102211.47;7386581;19;20429;-48
2022/03/02 10:00:49;;;;;;;37.80;19.07;;;;;;;4.81;100.00;102209.31;7390033;19;20402;-47
2022/03/02 10:03:21;;;;;;;31.63;17.50;;;;;;;4.73;100.00;102201.00;7381621;19;20418;-46
2022/03/02 10:05:53;;;;;;;31.20;17.03;;;;;;;4.84;100.00;102204.50;7391333;19;20391;-48
2022/03/02 10:08:24;;;;;;;29.10;15.70;;;;;;;4.95;100.00;102201.22;7385391;19;20518;-47
2022/03/02 10:10:58;;;;;;;33.43;17.83;;;;;;;5.03;100.00;102201.00;7391681;19;20398;-49
2022/03/02 10:13:28;;;;;;;34.60;16.50;;;;;;;4.99;100.00;102195.59;7386051;19;20423;-49
2022/03/02 10:15:59;;;;;;;28.77;16.27;;;;;;;5.15;100.00;102191.84;7392028;19;20384;-49
2022/03/02 10:18:31;;;;;;;25.90;14.70;;;;;;;5.22;100.00;102200.91;7392845;19;21060;-52
2022/03/02 10:21:03;;;;;;;30.63;15.20;;;;;;;5.26;100.00;102201.34;7397243;19;20383;-47
2022/03/02 10:23:40;;;;;;;34.23;17.80;;;;;;;5.33;100.00;102194.19;7396732;19;20415;-47
2022/03/02 10:26:19;;;;;;;29.30;16.60;;;;;;;5.56;100.00;102190.13;7396032;19;20387;-50
2022/03/02 10:28:56;;;;;;;35.07;16.97;;;;;;;5.64;100.00;102192.56;7400945;19;20396;-47
2022/03/02 10:31:47;;;;;;;28.97;15.53;;;;;;;5.64;100.00;102189.13;7395292;19;22000;-50
2022/03/02 10:34:34;;;;;;;28.70;15.50;;;;;;;5.58;100.00;102193.75;7396834;19;20407;-49
2022/03/02 10:37:29;;;;;;;28.00;14.30;;;;;;;5.50;100.00;102196.50;7390780;19;20981;-49
2022/03/02 10:40:13;;;;;;;29.57;16.10;;;;;;;5.74;100.00;102196.81;7401208;19;20399;-49
2022/03/02 10:42:47;;;;;;;31.27;15.73;;;;;;;5.94;100.00;102184.78;7393220;19;20430;-49
2022/03/02 10:45:18;;;;;;;31.33;15.63;;;;;;;5.99;100.00;102183.50;7396997;19;20422;-47
2022/03/02 10:48:04;;;;;;;32.50;16.33;;;;;;;5.92;100.00;102183.75;7392434;19;20516;-50
2022/03/02 10:50:37;;;;;;;24.73;14.47;;;;;;;6.01;100.00;102183.63;7397917;19;20372;-47
2022/03/02 10:53:12;;;;;;;31.30;16.10;;;;;;;6.07;100.00;102187.63;7391018;19;20408;-48
2022/03/02 10:55:45;;;;;;;24.60;14.50;;;;;;;6.11;100.00;102172.50;7397917;19;20385;-49
2022/03/02 10:58:19;;;;;;;27.93;15.40;;;;;;;6.05;100.00;102171.22;7393275;19;20414;-48
2022/03/02 11:00:49;;;;;;;32.40;17.17;;;;;;;6.14;100.00;102167.63;7396680;19;20393;-49
2022/03/02 11:03:20;;;;;;;27.80;14.37;;;;;;;6.18;100.00;102174.81;7393166;19;20464;-49
2022/03/02 11:05:50;;;;;;;32.47;16.40;;;;;;;6.25;100.00;102176.22;7397964;19;20398;-50
2022/03/02 11:08:20;;;;;;;36.80;16.37;;;;;;;6.15;100.00;102170.31;7393715;19;20418;-49
2022/03/02 11:10:50;;;;;;;30.07;15.90;;;;;;;6.04;100.00;102174.56;7399082;19;20393;-47
2022/03/02 11:13:25;;;;;;;31.87;17.03;;;;;;;6.16;100.00;102166.09;7393080;19;20422;-49
2022/03/02 11:15:56;;;;;;;31.37;17.73;;;;;;;6.22;100.00;102167.50;7397211;19;20390;-48
2022/03/02 11:18:35;;;;;;;28.70;16.30;;;;;;;6.28;100.00;102161.06;7396106;19;20480;-47
2022/03/02 11:21:06;;;;;;;32.10;16.53;;;;;;;6.22;100.00;102162.38;7398574;19;20405;-48
2022/03/02 11:23:44;;;;;;;41.20;19.67;;;;;;;6.20;100.00;102160.44;7392413;19;20459;-50
2022/03/02 11:26:16;;;;;;;36.00;17.67;;;;;;;6.24;100.00;102159.94;7383195;19;20401;-50
2022/03/02 11:28:51;;;;;;;35.13;19.37;;;;;;;6.42;100.00;102154.53;7390894;19;20940;-51